sensor_id;sensor_type;location;lat;lon;timestamp;pressure;altitude;pressure_sealevel;temperature;humidity
6343;BME280;3204;42.698;23.298;2024-03-25T00:02:11;93696.88;;;6.46;85.72
6343;BME280;3204;42.698;23.298;2024-03-25T00:04:36;93701.97;;;6.56;84.27
6343;BME280;3204;42.698;23.298;2024-03-25T00:07:02;93692.28;;;6.47;85.58
6343;BME280;3204;42.698;23.298;2024-03-25T00:09:27;93686.88;;;6.47;85.41
6343;BME280;3204;42.698;23.298;2024-03-25T00:11:53;93682.00;;;6.40;85.02
6343;BME280;3204;42.698;23.298;2024-03-25T00:14:22;93684.50;;;6.37;85.75
6343;BME280;3204;42.698;23.298;2024-03-25T00:16:48;93676.88;;;6.30;86.75
6343;BME280;3204;42.698;23.298;2024-03-25T00:19:14;93670.19;;;6.19;86.54
6343;BME280;3204;42.698;23.298;2024-03-25T00:21:39;93671.69;;;6.34;86.73
6343;BME280;3204;42.698;23.298;2024-03-25T00:24:05;93670.72;;;6.30;87.09
6343;BME280;3204;42.698;23.298;2024-03-25T00:26:30;93662.78;;;6.25;86.60
6343;BME280;3204;42.698;23.298;2024-03-25T00:28:56;93659.94;;;6.30;86.68
6343;BME280;3204;42.698;23.298;2024-03-25T00:31:21;93646.63;;;6.25;86.58
6343;BME280;3204;42.698;23.298;2024-03-25T00:33:46;93645.50;;;6.17;87.15
6343;BME280;3204;42.698;23.298;2024-03-25T00:36:12;93646.47;;;6.30;86.81
6343;BME280;3204;42.698;23.298;2024-03-25T00:38:37;93644.09;;;6.28;87.77
6343;BME280;3204;42.698;23.298;2024-03-25T00:41:03;93650.75;;;6.31;87.40
6343;BME280;3204;42.698;23.298;2024-03-25T00:43:28;93646.81;;;6.37;87.13
6343;BME280;3204;42.698;23.298;2024-03-25T00:45:54;93641.91;;;6.39;87.84
6343;BME280;3204;42.698;23.298;2024-03-25T00:48:19;93648.88;;;6.40;87.96
6343;BME280;3204;42.698;23.298;2024-03-25T00:50:44;93652.53;;;6.44;87.70
6343;BME280;3204;42.698;23.298;2024-03-25T00:53:10;93652.84;;;6.51;88.12
6343;BME280;3204;42.698;23.298;2024-03-25T00:55:36;93646.53;;;6.55;87.57
6343;BME280;3204;42.698;23.298;2024-03-25T00:58:02;93639.22;;;6.56;87.47
6343;BME280;3204;42.698;23.298;2024-03-25T01:00:28;93630.19;;;6.52;87.46
6343;BME280;3204;42.698;23.298;2024-03-25T01:02:53;93632.09;;;6.51;87.78
6343;BME280;3204;42.698;23.298;2024-03-25T01:05:18;93620.06;;;6.49;87.96
6343;BME280;3204;42.698;23.298;2024-03-25T01:07:44;93621.94;;;6.57;87.06
6343;BME280;3204;42.698;23.298;2024-03-25T01:10:09;93608.97;;;6.59;87.81
6343;BME280;3204;42.698;23.298;2024-03-25T01:12:34;93603.56;;;6.67;87.53
6343;BME280;3204;42.698;23.298;2024-03-25T01:15:00;93595.84;;;6.74;86.75
6343;BME280;3204;42.698;23.298;2024-03-25T01:17:27;93592.16;;;6.79;87.49
6343;BME280;3204;42.698;23.298;2024-03-25T01:19:52;93587.59;;;6.79;88.24
6343;BME280;3204;42.698;23.298;2024-03-25T01:22:18;93582.19;;;6.79;88.01
6343;BME280;3204;42.698;23.298;2024-03-25T01:24:43;93583.75;;;6.97;87.68
6343;BME280;3204;42.698;23.298;2024-03-25T01:27:09;93586.13;;;6.99;87.36
6343;BME280;3204;42.698;23.298;2024-03-25T01:29:34;93598.78;;;7.07;87.15
6343;BME280;3204;42.698;23.298;2024-03-25T01:32:00;93599.56;;;7.16;87.02
6343;BME280;3204;42.698;23.298;2024-03-25T01:34:27;93596.72;;;7.21;86.08
6343;BME280;3204;42.698;23.298;2024-03-25T01:36:53;93606.22;;;7.18;85.99
6343;BME280;3204;42.698;23.298;2024-03-25T01:39:18;93607.19;;;7.22;86.64
6343;BME280;3204;42.698;23.298;2024-03-25T01:41:44;93619.72;;;7.10;86.93
6343;BME280;3204;42.698;23.298;2024-03-25T01:44:10;93621.13;;;7.16;86.45
6343;BME280;3204;42.698;23.298;2024-03-25T01:46:35;93621.94;;;7.08;86.57
6343;BME280;3204;42.698;23.298;2024-03-25T01:49:01;93612.91;;;7.04;86.45
6343;BME280;3204;42.698;23.298;2024-03-25T01:51:26;93610.66;;;7.14;86.42
6343;BME280;3204;42.698;23.298;2024-03-25T01:53:54;93620.03;;;7.17;87.61
6343;BME280;3204;42.698;23.298;2024-03-25T01:56:21;93620.69;;;7.14;87.95
6343;BME280;3204;42.698;23.298;2024-03-25T01:58:48;93631.00;;;7.03;87.23
6343;BME280;3204;42.698;23.298;2024-03-25T02:01:14;93634.19;;;6.88;87.87
6343;BME280;3204;42.698;23.298;2024-03-25T02:03:44;93652.69;;;6.90;88.59
6343;BME280;3204;42.698;23.298;2024-03-25T02:06:13;93654.59;;;6.55;86.88
6343;BME280;3204;42.698;23.298;2024-03-25T02:08:41;93645.06;;;6.41;87.61
6343;BME280;3204;42.698;23.298;2024-03-25T02:11:07;93649.03;;;6.26;87.84
6343;BME280;3204;42.698;23.298;2024-03-25T02:13:35;93653.25;;;6.19;89.06
6343;BME280;3204;42.698;23.298;2024-03-25T02:16:01;93633.78;;;6.13;89.39
6343;BME280;3204;42.698;23.298;2024-03-25T02:18:26;93651.22;;;6.24;88.41
6343;BME280;3204;42.698;23.298;2024-03-25T02:20:52;93640.75;;;6.23;87.41
6343;BME280;3204;42.698;23.298;2024-03-25T02:23:18;93639.78;;;6.19;87.43
6343;BME280;3204;42.698;23.298;2024-03-25T02:25:54;93633.31;;;6.20;86.91
6343;BME280;3204;42.698;23.298;2024-03-25T02:28:20;93627.44;;;6.18;87.50
6343;BME280;3204;42.698;23.298;2024-03-25T02:30:46;93630.47;;;6.25;87.26
6343;BME280;3204;42.698;23.298;2024-03-25T02:33:11;93633.78;;;6.30;86.61
6343;BME280;3204;42.698;23.298;2024-03-25T02:35:37;93636.34;;;6.35;86.98
6343;BME280;3204;42.698;23.298;2024-03-25T02:38:04;93643.78;;;6.30;87.43
6343;BME280;3204;42.698;23.298;2024-03-25T02:40:30;93642.38;;;6.41;86.82
6343;BME280;3204;42.698;23.298;2024-03-25T02:42:57;93646.50;;;6.47;86.53
6343;BME280;3204;42.698;23.298;2024-03-25T02:45:22;93635.09;;;6.50;85.89
6343;BME280;3204;42.698;23.298;2024-03-25T02:47:48;93629.09;;;6.61;85.14
6343;BME280;3204;42.698;23.298;2024-03-25T02:50:14;93647.47;;;6.59;85.58
6343;BME280;3204;42.698;23.298;2024-03-25T02:52:39;93655.88;;;6.58;86.00
6343;BME280;3204;42.698;23.298;2024-03-25T02:55:05;93659.03;;;6.60;85.81
6343;BME280;3204;42.698;23.298;2024-03-25T02:57:30;93654.59;;;6.64;85.07
6343;BME280;3204;42.698;23.298;2024-03-25T02:59:56;93652.53;;;6.61;85.19
6343;BME280;3204;42.698;23.298;2024-03-25T03:02:21;93660.94;;;6.68;84.64
6343;BME280;3204;42.698;23.298;2024-03-25T03:04:47;93661.72;;;6.68;84.62
6343;BME280;3204;42.698;23.298;2024-03-25T03:07:12;93647.63;;;6.63;84.74
6343;BME280;3204;42.698;23.298;2024-03-25T03:09:38;93652.06;;;6.59;85.42
6343;BME280;3204;42.698;23.298;2024-03-25T03:12:03;93660.00;;;6.64;84.20
6343;BME280;3204;42.698;23.298;2024-03-25T03:14:29;93659.38;;;6.67;83.38
6343;BME280;3204;42.698;23.298;2024-03-25T03:16:54;93652.56;;;6.69;82.76
6343;BME280;3204;42.698;23.298;2024-03-25T03:19:25;93657.00;;;6.65;82.57
6343;BME280;3204;42.698;23.298;2024-03-25T03:21:51;93644.47;;;6.69;82.75
6343;BME280;3204;42.698;23.298;2024-03-25T03:24:18;93655.56;;;6.68;81.81
6343;BME280;3204;42.698;23.298;2024-03-25T03:26:44;93656.19;;;6.56;83.26
6343;BME280;3204;42.698;23.298;2024-03-25T03:29:09;93668.84;;;6.56;82.34
6343;BME280;3204;42.698;23.298;2024-03-25T03:31:34;93682.97;;;6.61;82.71
6343;BME280;3204;42.698;23.298;2024-03-25T03:34:00;93689.94;;;6.62;81.52
6343;BME280;3204;42.698;23.298;2024-03-25T03:36:25;93685.03;;;6.73;81.19
6343;BME280;3204;42.698;23.298;2024-03-25T03:38:51;93685.50;;;6.66;81.13
6343;BME280;3204;42.698;23.298;2024-03-25T03:41:17;93689.94;;;6.71;81.16
6343;BME280;3204;42.698;23.298;2024-03-25T03:43:42;93694.22;;;6.80;80.83
6343;BME280;3204;42.698;23.298;2024-03-25T03:46:07;93699.00;;;6.83;80.64
6343;BME280;3204;42.698;23.298;2024-03-25T03:48:33;93699.13;;;6.70;80.49
6343;BME280;3204;42.698;23.298;2024-03-25T03:50:59;93708.78;;;6.71;80.71
6343;BME280;3204;42.698;23.298;2024-03-25T03:53:25;93699.47;;;6.77;80.72
6343;BME280;3204;42.698;23.298;2024-03-25T03:55:54;93697.84;;;6.76;80.44
6343;BME280;3204;42.698;23.298;2024-03-25T03:58:20;93697.72;;;6.89;78.12
6343;BME280;3204;42.698;23.298;2024-03-25T04:00:46;93695.50;;;6.83;78.19
6343;BME280;3204;42.698;23.298;2024-03-25T04:03:11;93720.72;;;6.78;77.79
6343;BME280;3204;42.698;23.298;2024-03-25T04:05:36;93729.41;;;6.67;78.49
6343;BME280;3204;42.698;23.298;2024-03-25T04:08:02;93723.69;;;6.68;78.18
6343;BME280;3204;42.698;23.298;2024-03-25T04:10:28;93731.81;;;6.77;78.97
6343;BME280;3204;42.698;23.298;2024-03-25T04:12:54;93725.75;;;6.71;79.71
6343;BME280;3204;42.698;23.298;2024-03-25T04:15:21;93726.09;;;6.87;78.62
6343;BME280;3204;42.698;23.298;2024-03-25T04:17:47;93719.91;;;6.78;79.81
6343;BME280;3204;42.698;23.298;2024-03-25T04:20:15;93733.06;;;6.88;78.53
6343;BME280;3204;42.698;23.298;2024-03-25T04:22:44;93732.59;;;6.86;79.51
6343;BME280;3204;42.698;23.298;2024-03-25T04:25:10;93747.66;;;6.95;79.46
6343;BME280;3204;42.698;23.298;2024-03-25T04:27:40;93757.31;;;6.88;79.62
6343;BME280;3204;42.698;23.298;2024-03-25T04:30:07;93751.31;;;6.91;79.11
6343;BME280;3204;42.698;23.298;2024-03-25T04:32:33;93748.28;;;6.92;79.25
6343;BME280;3204;42.698;23.298;2024-03-25T04:34:59;93747.50;;;6.92;78.23
6343;BME280;3204;42.698;23.298;2024-03-25T04:37:24;93759.88;;;6.93;78.20
6343;BME280;3204;42.698;23.298;2024-03-25T04:39:50;93773.81;;;6.95;78.01
6343;BME280;3204;42.698;23.298;2024-03-25T04:42:15;93787.44;;;6.90;77.54
6343;BME280;3204;42.698;23.298;2024-03-25T04:44:41;93795.06;;;6.88;77.93
6343;BME280;3204;42.698;23.298;2024-03-25T04:47:06;93795.84;;;6.88;77.87
6343;BME280;3204;42.698;23.298;2024-03-25T04:49:32;93792.38;;;6.96;77.57
6343;BME280;3204;42.698;23.298;2024-03-25T04:51:57;93797.59;;;6.93;77.11
6343;BME280;3204;42.698;23.298;2024-03-25T04:54:22;93791.88;;;6.86;78.11
6343;BME280;3204;42.698;23.298;2024-03-25T04:56:48;93790.63;;;6.92;76.86
6343;BME280;3204;42.698;23.298;2024-03-25T04:59:13;93799.47;;;6.84;77.44
6343;BME280;3204;42.698;23.298;2024-03-25T05:01:38;93789.78;;;6.74;77.13
6343;BME280;3204;42.698;23.298;2024-03-25T05:04:04;93787.13;;;6.83;77.35
6343;BME280;3204;42.698;23.298;2024-03-25T05:06:29;93791.25;;;6.89;76.98
6343;BME280;3204;42.698;23.298;2024-03-25T05:08:55;93794.28;;;6.96;77.49
6343;BME280;3204;42.698;23.298;2024-03-25T05:11:20;93800.31;;;7.01;77.05
6343;BME280;3204;42.698;23.298;2024-03-25T05:13:45;93796.81;;;7.01;77.08
6343;BME280;3204;42.698;23.298;2024-03-25T05:16:11;93792.91;;;7.24;73.78
6343;BME280;3204;42.698;23.298;2024-03-25T05:18:36;93798.88;;;7.04;75.49
6343;BME280;3204;42.698;23.298;2024-03-25T05:21:02;93801.72;;;6.99;75.18
6343;BME280;3204;42.698;23.298;2024-03-25T05:23:27;93803.78;;;6.93;75.50
6343;BME280;3204;42.698;23.298;2024-03-25T05:25:52;93802.53;;;7.08;74.76
6343;BME280;3204;42.698;23.298;2024-03-25T05:28:18;93808.38;;;7.01;74.41
6343;BME280;3204;42.698;23.298;2024-03-25T05:30:43;93807.47;;;7.06;75.44
6343;BME280;3204;42.698;23.298;2024-03-25T05:33:08;93815.41;;;7.11;73.78
6343;BME280;3204;42.698;23.298;2024-03-25T05:35:34;93815.25;;;7.24;72.77
6343;BME280;3204;42.698;23.298;2024-03-25T05:38:02;93822.72;;;7.19;73.38
6343;BME280;3204;42.698;23.298;2024-03-25T05:40:29;93817.28;;;7.10;74.39
6343;BME280;3204;42.698;23.298;2024-03-25T05:42:54;93832.50;;;7.06;73.47
6343;BME280;3204;42.698;23.298;2024-03-25T05:45:19;93829.50;;;7.08;74.64
6343;BME280;3204;42.698;23.298;2024-03-25T05:47:45;93846.63;;;7.03;73.82
6343;BME280;3204;42.698;23.298;2024-03-25T05:50:10;93834.72;;;7.13;73.89
6343;BME280;3204;42.698;23.298;2024-03-25T05:52:36;93852.69;;;7.17;73.13
6343;BME280;3204;42.698;23.298;2024-03-25T05:55:02;93855.06;;;7.36;73.38
6343;BME280;3204;42.698;23.298;2024-03-25T05:57:27;93863.97;;;7.45;72.29
6343;BME280;3204;42.698;23.298;2024-03-25T05:59:53;93855.91;;;7.70;71.38
6343;BME280;3204;42.698;23.298;2024-03-25T06:02:18;93864.31;;;7.77;71.59
6343;BME280;3204;42.698;23.298;2024-03-25T06:04:43;93868.44;;;7.75;70.90
6343;BME280;3204;42.698;23.298;2024-03-25T06:07:09;93864.16;;;7.82;70.83
6343;BME280;3204;42.698;23.298;2024-03-25T06:09:34;93867.50;;;8.05;70.56
6343;BME280;3204;42.698;23.298;2024-03-25T06:11:59;93876.38;;;8.22;69.90
6343;BME280;3204;42.698;23.298;2024-03-25T06:14:25;93883.78;;;8.51;68.39
6343;BME280;3204;42.698;23.298;2024-03-25T06:16:50;93880.91;;;8.56;67.16
6343;BME280;3204;42.698;23.298;2024-03-25T06:19:16;93887.75;;;8.53;67.34
6343;BME280;3204;42.698;23.298;2024-03-25T06:21:41;93875.19;;;8.66;67.76
6343;BME280;3204;42.698;23.298;2024-03-25T06:24:08;93885.75;;;8.88;65.92
6343;BME280;3204;42.698;23.298;2024-03-25T06:26:33;93888.22;;;9.10;65.90
6343;BME280;3204;42.698;23.298;2024-03-25T06:28:59;93894.06;;;9.20;63.51
6343;BME280;3204;42.698;23.298;2024-03-25T06:31:25;93897.34;;;9.26;63.23
6343;BME280;3204;42.698;23.298;2024-03-25T06:34:09;93904.50;;;9.30;62.44
6343;BME280;3204;42.698;23.298;2024-03-25T06:36:46;93909.81;;;9.47;62.83
6343;BME280;3204;42.698;23.298;2024-03-25T06:39:13;93906.59;;;9.54;62.12
6343;BME280;3204;42.698;23.298;2024-03-25T06:41:38;93911.19;;;9.82;62.24
6343;BME280;3204;42.698;23.298;2024-03-25T06:44:04;93919.22;;;10.20;60.19
6343;BME280;3204;42.698;23.298;2024-03-25T06:46:30;93926.38;;;10.57;59.60
6343;BME280;3204;42.698;23.298;2024-03-25T06:48:55;93928.31;;;10.89;58.70
6343;BME280;3204;42.698;23.298;2024-03-25T06:51:21;93931.22;;;10.84;56.83
6343;BME280;3204;42.698;23.298;2024-03-25T06:53:46;93944.78;;;10.84;57.16
6343;BME280;3204;42.698;23.298;2024-03-25T06:56:11;93935.53;;;10.32;57.84
6343;BME280;3204;42.698;23.298;2024-03-25T06:58:37;93940.03;;;10.28;59.09
6343;BME280;3204;42.698;23.298;2024-03-25T07:01:07;93936.50;;;10.80;58.29
6343;BME280;3204;42.698;23.298;2024-03-25T07:03:34;93939.31;;;10.72;58.11
6343;BME280;3204;42.698;23.298;2024-03-25T07:05:59;93934.59;;;10.81;56.04
6343;BME280;3204;42.698;23.298;2024-03-25T07:08:28;93951.75;;;10.73;56.12
6343;BME280;3204;42.698;23.298;2024-03-25T07:10:55;93948.69;;;10.42;56.22
6343;BME280;3204;42.698;23.298;2024-03-25T07:13:21;93944.78;;;10.51;56.95
6343;BME280;3204;42.698;23.298;2024-03-25T07:15:46;93951.75;;;10.73;56.58
6343;BME280;3204;42.698;23.298;2024-03-25T07:18:12;93962.69;;;10.64;55.53
6343;BME280;3204;42.698;23.298;2024-03-25T07:20:42;93958.13;;;10.36;55.66
6343;BME280;3204;42.698;23.298;2024-03-25T07:23:08;93968.31;;;10.39;55.96
6343;BME280;3204;42.698;23.298;2024-03-25T07:25:34;93961.31;;;10.38;56.65
6343;BME280;3204;42.698;23.298;2024-03-25T07:27:59;93961.66;;;10.69;54.68
6343;BME280;3204;42.698;23.298;2024-03-25T07:30:25;93961.25;;;11.11;54.41
6343;BME280;3204;42.698;23.298;2024-03-25T07:32:56;93964.00;;;11.35;53.55
6343;BME280;3204;42.698;23.298;2024-03-25T07:35:22;93959.16;;;11.41;54.20
6343;BME280;3204;42.698;23.298;2024-03-25T07:37:48;93965.88;;;11.67;53.04
6343;BME280;3204;42.698;23.298;2024-03-25T07:40:20;93963.34;;;12.22;51.93
6343;BME280;3204;42.698;23.298;2024-03-25T07:42:46;93969.34;;;12.28;51.06
6343;BME280;3204;42.698;23.298;2024-03-25T07:45:12;93965.75;;;12.00;50.68
6343;BME280;3204;42.698;23.298;2024-03-25T07:47:37;93972.63;;;12.33;50.77
6343;BME280;3204;42.698;23.298;2024-03-25T07:50:03;93976.38;;;12.05;50.34
6343;BME280;3204;42.698;23.298;2024-03-25T07:52:31;93966.22;;;11.90;50.19
6343;BME280;3204;42.698;23.298;2024-03-25T07:54:56;93976.84;;;11.83;51.04
6343;BME280;3204;42.698;23.298;2024-03-25T07:57:22;93966.63;;;12.16;50.00
6343;BME280;3204;42.698;23.298;2024-03-25T07:59:48;93976.09;;;12.34;50.08
6343;BME280;3204;42.698;23.298;2024-03-25T08:02:13;93971.06;;;12.60;49.58
6343;BME280;3204;42.698;23.298;2024-03-25T08:04:39;93975.38;;;12.88;49.44
6343;BME280;3204;42.698;23.298;2024-03-25T08:07:05;93975.16;;;13.36;48.41
6343;BME280;3204;42.698;23.298;2024-03-25T08:09:31;93975.34;;;13.90;47.39
6343;BME280;3204;42.698;23.298;2024-03-25T08:11:56;93982.13;;;14.27;45.96
6343;BME280;3204;42.698;23.298;2024-03-25T08:14:22;93978.75;;;14.33;45.74
6343;BME280;3204;42.698;23.298;2024-03-25T08:16:48;93974.00;;;14.65;44.64
6343;BME280;3204;42.698;23.298;2024-03-25T08:19:13;93996.06;;;14.75;44.17
6343;BME280;3204;42.698;23.298;2024-03-25T08:21:39;94000.03;;;14.78;44.05
6343;BME280;3204;42.698;23.298;2024-03-25T08:24:04;94004.38;;;14.63;43.15
6343;BME280;3204;42.698;23.298;2024-03-25T08:26:30;94002.25;;;14.22;43.76
6343;BME280;3204;42.698;23.298;2024-03-25T08:28:55;93996.84;;;14.41;43.65
6343;BME280;3204;42.698;23.298;2024-03-25T08:31:21;93997.31;;;14.28;43.76
6343;BME280;3204;42.698;23.298;2024-03-25T08:33:46;94014.53;;;14.82;43.82
6343;BME280;3204;42.698;23.298;2024-03-25T08:36:12;94014.66;;;14.35;42.36
6343;BME280;3204;42.698;23.298;2024-03-25T08:38:37;94015.78;;;14.50;42.33
6343;BME280;3204;42.698;23.298;2024-03-25T08:41:03;94011.59;;;14.90;41.30
6343;BME280;3204;42.698;23.298;2024-03-25T08:43:29;94015.81;;;13.72;44.39
6343;BME280;3204;42.698;23.298;2024-03-25T08:45:54;94012.59;;;13.39;44.88
6343;BME280;3204;42.698;23.298;2024-03-25T08:48:19;94014.00;;;13.06;45.85
6343;BME280;3204;42.698;23.298;2024-03-25T08:50:45;94014.03;;;12.94;46.38
6343;BME280;3204;42.698;23.298;2024-03-25T08:53:10;94026.81;;;13.33;45.96
6343;BME280;3204;42.698;23.298;2024-03-25T08:55:36;94021.69;;;13.59;45.01
6343;BME280;3204;42.698;23.298;2024-03-25T08:58:01;94033.06;;;13.33;44.72
6343;BME280;3204;42.698;23.298;2024-03-25T09:00:27;94028.59;;;13.13;44.95
6343;BME280;3204;42.698;23.298;2024-03-25T09:02:53;94019.59;;;12.97;45.79
6343;BME280;3204;42.698;23.298;2024-03-25T09:05:19;94033.06;;;12.66;46.30
6343;BME280;3204;42.698;23.298;2024-03-25T09:07:45;94033.91;;;12.31;46.37
6343;BME280;3204;42.698;23.298;2024-03-25T09:10:11;94027.13;;;12.13;46.98
6343;BME280;3204;42.698;23.298;2024-03-25T09:12:55;94027.81;;;11.98;47.12
6343;BME280;3204;42.698;23.298;2024-03-25T09:15:20;94037.25;;;11.56;48.18
6343;BME280;3204;42.698;23.298;2024-03-25T09:17:46;94028.34;;;11.23;49.31
6343;BME280;3204;42.698;23.298;2024-03-25T09:20:11;94027.66;;;11.26;48.62
6343;BME280;3204;42.698;23.298;2024-03-25T09:22:45;94036.97;;;11.37;48.60
6343;BME280;3204;42.698;23.298;2024-03-25T09:25:11;94033.13;;;11.38;48.89
6343;BME280;3204;42.698;23.298;2024-03-25T09:27:37;94043.72;;;11.31;49.05
6343;BME280;3204;42.698;23.298;2024-03-25T09:30:03;94035.94;;;11.29;49.71
6343;BME280;3204;42.698;23.298;2024-03-25T09:32:29;94034.09;;;11.21;49.86
6343;BME280;3204;42.698;23.298;2024-03-25T09:34:58;94017.50;;;11.35;50.00
6343;BME280;3204;42.698;23.298;2024-03-25T09:37:23;94032.69;;;11.36;50.23
6343;BME280;3204;42.698;23.298;2024-03-25T09:39:49;94020.47;;;11.54;49.78
6343;BME280;3204;42.698;23.298;2024-03-25T09:42:15;94029.34;;;11.63;48.99
6343;BME280;3204;42.698;23.298;2024-03-25T09:44:43;94033.84;;;11.59;49.27
6343;BME280;3204;42.698;23.298;2024-03-25T09:47:09;94034.53;;;11.56;49.56
6343;BME280;3204;42.698;23.298;2024-03-25T09:49:40;94026.31;;;11.76;49.57
6343;BME280;3204;42.698;23.298;2024-03-25T09:52:06;94028.13;;;11.84;48.96
6343;BME280;3204;42.698;23.298;2024-03-25T09:54:32;94030.47;;;11.62;48.68
6343;BME280;3204;42.698;23.298;2024-03-25T09:56:58;94026.75;;;11.22;48.83
6343;BME280;3204;42.698;23.298;2024-03-25T09:59:24;94016.56;;;11.19;49.26
6343;BME280;3204;42.698;23.298;2024-03-25T10:01:49;94032.09;;;11.30;49.91
6343;BME280;3204;42.698;23.298;2024-03-25T10:04:16;94036.81;;;11.33;49.45
6343;BME280;3204;42.698;23.298;2024-03-25T10:06:41;94033.16;;;11.17;49.14
6343;BME280;3204;42.698;23.298;2024-03-25T10:09:07;94036.06;;;11.00;49.34
6343;BME280;3204;42.698;23.298;2024-03-25T10:11:34;94035.09;;;10.64;50.34
6343;BME280;3204;42.698;23.298;2024-03-25T10:14:01;94038.97;;;10.34;50.40
6343;BME280;3204;42.698;23.298;2024-03-25T10:16:27;94034.69;;;10.33;51.16
6343;BME280;3204;42.698;23.298;2024-03-25T10:18:53;94040.19;;;10.24;51.32
6343;BME280;3204;42.698;23.298;2024-03-25T10:21:22;94042.22;;;10.48;51.30
6343;BME280;3204;42.698;23.298;2024-03-25T10:23:48;94035.47;;;10.74;50.67
6343;BME280;3204;42.698;23.298;2024-03-25T10:26:30;94042.63;;;10.79;49.32
6343;BME280;3204;42.698;23.298;2024-03-25T10:31:25;94027.63;;;10.81;48.85
6343;BME280;3204;42.698;23.298;2024-03-25T10:33:51;94040.69;;;11.00;47.57
6343;BME280;3204;42.698;23.298;2024-03-25T10:36:18;94043.63;;;11.07;47.02
6343;BME280;3204;42.698;23.298;2024-03-25T10:38:45;94036.28;;;11.40;46.10
6343;BME280;3204;42.698;23.298;2024-03-25T10:41:13;94039.03;;;11.52;44.97
6343;BME280;3204;42.698;23.298;2024-03-25T10:43:43;94046.63;;;11.58;44.91
6343;BME280;3204;42.698;23.298;2024-03-25T10:46:11;94039.91;;;11.76;44.86
6343;BME280;3204;42.698;23.298;2024-03-25T10:48:39;94038.75;;;11.89;44.62
6343;BME280;3204;42.698;23.298;2024-03-25T10:51:06;94029.59;;;12.18;45.12
6343;BME280;3204;42.698;23.298;2024-03-25T10:53:34;94031.97;;;12.43;44.47
6343;BME280;3204;42.698;23.298;2024-03-25T10:56:01;94029.09;;;12.64;44.59
6343;BME280;3204;42.698;23.298;2024-03-25T10:58:30;94050.63;;;12.57;43.66
6343;BME280;3204;42.698;23.298;2024-03-25T11:00:56;94030.25;;;12.51;43.40
6343;BME280;3204;42.698;23.298;2024-03-25T11:03:23;94047.34;;;12.51;43.76
6343;BME280;3204;42.698;23.298;2024-03-25T11:05:49;94035.88;;;12.70;43.41
6343;BME280;3204;42.698;23.298;2024-03-25T11:08:16;94043.28;;;12.57;42.18
6343;BME280;3204;42.698;23.298;2024-03-25T11:10:46;94029.44;;;12.62;42.83
6343;BME280;3204;42.698;23.298;2024-03-25T11:13:17;94037.91;;;13.12;42.73
6343;BME280;3204;42.698;23.298;2024-03-25T11:15:44;94025.81;;;13.68;42.17
6343;BME280;3204;42.698;23.298;2024-03-25T11:18:14;94034.25;;;14.10;41.55
6343;BME280;3204;42.698;23.298;2024-03-25T11:20:40;94042.88;;;14.43;41.26
6343;BME280;3204;42.698;23.298;2024-03-25T11:23:12;94043.06;;;14.50;41.20
6343;BME280;3204;42.698;23.298;2024-03-25T11:25:39;94052.16;;;14.73;41.48
6343;BME280;3204;42.698;23.298;2024-03-25T11:28:05;94047.59;;;15.15;41.26
6343;BME280;3204;42.698;23.298;2024-03-25T11:30:31;94058.63;;;15.18;41.05
6343;BME280;3204;42.698;23.298;2024-03-25T11:32:58;94067.22;;;15.20;40.61
6343;BME280;3204;42.698;23.298;2024-03-25T11:35:26;94046.91;;;15.37;40.18
6343;BME280;3204;42.698;23.298;2024-03-25T11:37:51;94047.44;;;15.84;40.42
6343;BME280;3204;42.698;23.298;2024-03-25T11:40:18;94047.38;;;16.03;39.72
6343;BME280;3204;42.698;23.298;2024-03-25T11:42:44;94045.72;;;15.76;39.99
6343;BME280;3204;42.698;23.298;2024-03-25T11:45:17;94042.53;;;15.51;40.97
6343;BME280;3204;42.698;23.298;2024-03-25T11:47:47;94054.47;;;15.85;40.30
6343;BME280;3204;42.698;23.298;2024-03-25T11:50:14;94062.25;;;16.28;39.95
6343;BME280;3204;42.698;23.298;2024-03-25T11:52:40;94060.69;;;16.27;39.95
6343;BME280;3204;42.698;23.298;2024-03-25T11:55:06;94056.44;;;16.52;38.97
6343;BME280;3204;42.698;23.298;2024-03-25T11:57:34;94053.66;;;16.75;37.35
6343;BME280;3204;42.698;23.298;2024-03-25T12:00:00;94061.41;;;16.69;37.24
6343;BME280;3204;42.698;23.298;2024-03-25T12:02:26;94056.25;;;16.19;37.57
6343;BME280;3204;42.698;23.298;2024-03-25T12:04:51;94058.50;;;16.36;37.25
6343;BME280;3204;42.698;23.298;2024-03-25T12:07:17;94076.31;;;16.04;37.30
6343;BME280;3204;42.698;23.298;2024-03-25T12:09:43;94064.16;;;15.22;39.20
6343;BME280;3204;42.698;23.298;2024-03-25T12:12:27;94077.81;;;14.87;39.53
6343;BME280;3204;42.698;23.298;2024-03-25T12:14:54;94057.28;;;14.93;39.43
6343;BME280;3204;42.698;23.298;2024-03-25T12:17:21;94063.34;;;15.21;39.28
6343;BME280;3204;42.698;23.298;2024-03-25T12:20:04;94060.41;;;15.30;38.66
6343;BME280;3204;42.698;23.298;2024-03-25T12:22:30;94060.25;;;15.04;39.71
6343;BME280;3204;42.698;23.298;2024-03-25T12:25:14;94066.28;;;15.13;39.34
6343;BME280;3204;42.698;23.298;2024-03-25T12:27:39;94057.63;;;15.45;38.97
6343;BME280;3204;42.698;23.298;2024-03-25T12:30:09;94059.38;;;15.19;40.08
6343;BME280;3204;42.698;23.298;2024-03-25T12:32:42;94053.06;;;15.15;39.12
6343;BME280;3204;42.698;23.298;2024-03-25T12:35:15;94062.72;;;15.47;39.13
6343;BME280;3204;42.698;23.298;2024-03-25T12:37:45;94058.31;;;15.23;38.46
6343;BME280;3204;42.698;23.298;2024-03-25T12:40:12;94056.81;;;15.64;38.16
6343;BME280;3204;42.698;23.298;2024-03-25T12:42:38;94061.34;;;15.98;37.79
6343;BME280;3204;42.698;23.298;2024-03-25T12:45:07;94053.13;;;15.75;37.20
6343;BME280;3204;42.698;23.298;2024-03-25T12:47:33;94060.25;;;15.23;38.11
6343;BME280;3204;42.698;23.298;2024-03-25T12:49:59;94058.69;;;15.60;37.85
6343;BME280;3204;42.698;23.298;2024-03-25T12:52:24;94075.28;;;14.94;37.98
6343;BME280;3204;42.698;23.298;2024-03-25T12:54:50;94069.44;;;14.15;39.27
6343;BME280;3204;42.698;23.298;2024-03-25T12:57:15;94081.13;;;13.14;42.86
6343;BME280;3204;42.698;23.298;2024-03-25T12:59:40;94071.03;;;13.14;42.73
6343;BME280;3204;42.698;23.298;2024-03-25T13:02:09;94078.31;;;13.10;40.24
6343;BME280;3204;42.698;23.298;2024-03-25T13:04:36;94074.53;;;13.15;40.53
6343;BME280;3204;42.698;23.298;2024-03-25T13:07:03;94074.28;;;13.20;40.81
6343;BME280;3204;42.698;23.298;2024-03-25T13:09:28;94077.31;;;13.30;41.55
6343;BME280;3204;42.698;23.298;2024-03-25T13:11:56;94074.34;;;13.35;41.33
6343;BME280;3204;42.698;23.298;2024-03-25T13:14:21;94069.50;;;13.56;41.41
6343;BME280;3204;42.698;23.298;2024-03-25T13:16:48;94076.06;;;13.55;41.43